sensor_id;sensor_type;location;lat;lon;timestamp;temperature;humidity
18712;DHT22;9485;49.386;8.674;2023-06-10T00:01:33;26.90;35.60
18712;DHT22;9485;49.386;8.674;2023-06-10T00:06:55;26.90;35.70
18712;DHT22;9485;49.386;8.674;2023-06-10T00:12:16;26.70;35.50
18712;DHT22;9485;49.386;8.674;2023-06-10T00:17:38;26.80;35.70
18712;DHT22;9485;49.386;8.674;2023-06-10T00:23:00;26.80;35.80
18712;DHT22;9485;49.386;8.674;2023-06-10T00:28:21;26.70;35.80
18712;DHT22;9485;49.386;8.674;2023-06-10T00:33:44;26.70;35.80
18712;DHT22;9485;49.386;8.674;2023-06-10T00:39:04;26.70;35.90
18712;DHT22;9485;49.386;8.674;2023-06-10T00:44:26;26.60;35.90
18712;DHT22;9485;49.386;8.674;2023-06-10T00:49:49;26.60;35.90
18712;DHT22;9485;49.386;8.674;2023-06-10T00:55:10;26.60;36.00
18712;DHT22;9485;49.386;8.674;2023-06-10T01:00:30;26.60;36.10
18712;DHT22;9485;49.386;8.674;2023-06-10T01:05:57;26.60;36.00
18712;DHT22;9485;49.386;8.674;2023-06-10T01:11:28;26.60;36.10
18712;DHT22;9485;49.386;8.674;2023-06-10T01:16:54;26.60;36.10
18712;DHT22;9485;49.386;8.674;2023-06-10T01:22:17;26.60;36.10
18712;DHT22;9485;49.386;8.674;2023-06-10T01:27:38;26.60;36.10
18712;DHT22;9485;49.386;8.674;2023-06-10T01:33:03;26.60;36.20
18712;DHT22;9485;49.386;8.674;2023-06-10T01:38:33;26.60;36.30
18712;DHT22;9485;49.386;8.674;2023-06-10T01:44:00;26.50;36.20
18712;DHT22;9485;49.386;8.674;2023-06-10T01:49:21;26.50;36.10
18712;DHT22;9485;49.386;8.674;2023-06-10T01:54:44;26.50;36.30
18712;DHT22;9485;49.386;8.674;2023-06-10T02:00:06;26.40;36.50
18712;DHT22;9485;49.386;8.674;2023-06-10T02:05:59;26.30;36.60
18712;DHT22;9485;49.386;8.674;2023-06-10T02:11:21;26.10;36.60
18712;DHT22;9485;49.386;8.674;2023-06-10T02:16:41;25.90;36.90
18712;DHT22;9485;49.386;8.674;2023-06-10T02:22:06;25.60;37.10
18712;DHT22;9485;49.386;8.674;2023-06-10T02:27:29;25.30;37.30
18712;DHT22;9485;49.386;8.674;2023-06-10T02:32:50;25.10;37.60
18712;DHT22;9485;49.386;8.674;2023-06-10T02:38:13;24.80;37.70
18712;DHT22;9485;49.386;8.674;2023-06-10T02:43:35;24.70;38.10
18712;DHT22;9485;49.386;8.674;2023-06-10T02:48:56;24.50;38.40
18712;DHT22;9485;49.386;8.674;2023-06-10T02:54:18;24.30;38.60
18712;DHT22;9485;49.386;8.674;2023-06-10T02:59:40;24.20;38.90
18712;DHT22;9485;49.386;8.674;2023-06-10T03:05:01;24.10;39.30
18712;DHT22;9485;49.386;8.674;2023-06-10T03:10:22;23.90;39.30
18712;DHT22;9485;49.386;8.674;2023-06-10T03:15:45;23.80;39.50
18712;DHT22;9485;49.386;8.674;2023-06-10T03:21:10;23.60;40.00
18712;DHT22;9485;49.386;8.674;2023-06-10T03:26:31;23.50;40.00
18712;DHT22;9485;49.386;8.674;2023-06-10T03:31:53;23.40;40.40
18712;DHT22;9485;49.386;8.674;2023-06-10T03:37:15;23.30;40.70
18712;DHT22;9485;49.386;8.674;2023-06-10T03:42:38;23.20;40.80
18712;DHT22;9485;49.386;8.674;2023-06-10T03:48:01;23.20;41.10
18712;DHT22;9485;49.386;8.674;2023-06-10T03:53:31;23.10;41.40
18712;DHT22;9485;49.386;8.674;2023-06-10T03:58:51;23.10;41.40
18712;DHT22;9485;49.386;8.674;2023-06-10T04:04:14;23.00;41.70
18712;DHT22;9485;49.386;8.674;2023-06-10T04:09:36;23.00;42.10
18712;DHT22;9485;49.386;8.674;2023-06-10T04:14:56;23.00;42.10
18712;DHT22;9485;49.386;8.674;2023-06-10T04:20:19;22.90;42.20
18712;DHT22;9485;49.386;8.674;2023-06-10T04:25:42;22.90;42.70
18712;DHT22;9485;49.386;8.674;2023-06-10T04:31:04;22.90;42.80
18712;DHT22;9485;49.386;8.674;2023-06-10T04:36:25;23.00;43.10
18712;DHT22;9485;49.386;8.674;2023-06-10T04:41:48;22.90;43.20
18712;DHT22;9485;49.386;8.674;2023-06-10T04:47:09;23.00;43.40
18712;DHT22;9485;49.386;8.674;2023-06-10T04:52:31;23.00;43.60
18712;DHT22;9485;49.386;8.674;2023-06-10T04:57:52;23.00;43.80
18712;DHT22;9485;49.386;8.674;2023-06-10T05:03:13;23.00;44.00
18712;DHT22;9485;49.386;8.674;2023-06-10T05:08:35;23.10;44.00
18712;DHT22;9485;49.386;8.674;2023-06-10T05:13:56;23.10;44.20
18712;DHT22;9485;49.386;8.674;2023-06-10T05:19:16;23.20;44.10
18712;DHT22;9485;49.386;8.674;2023-06-10T05:24:39;23.30;44.60
18712;DHT22;9485;49.386;8.674;2023-06-10T05:30:00;23.40;44.50
18712;DHT22;9485;49.386;8.674;2023-06-10T05:35:21;23.50;44.70
18712;DHT22;9485;49.386;8.674;2023-06-10T05:40:43;23.70;44.60
18712;DHT22;9485;49.386;8.674;2023-06-10T05:46:04;23.80;44.90
18712;DHT22;9485;49.386;8.674;2023-06-10T05:51:25;23.90;44.40
18712;DHT22;9485;49.386;8.674;2023-06-10T05:56:48;24.10;44.50
18712;DHT22;9485;49.386;8.674;2023-06-10T06:02:09;24.20;44.60
18712;DHT22;9485;49.386;8.674;2023-06-10T06:07:30;24.30;44.60
18712;DHT22;9485;49.386;8.674;2023-06-10T06:12:52;24.50;44.70
18712;DHT22;9485;49.386;8.674;2023-06-10T06:18:13;24.50;44.80
18712;DHT22;9485;49.386;8.674;2023-06-10T06:23:33;24.70;44.70
18712;DHT22;9485;49.386;8.674;2023-06-10T06:28:56;24.80;44.60
18712;DHT22;9485;49.386;8.674;2023-06-10T06:34:16;24.80;44.40
18712;DHT22;9485;49.386;8.674;2023-06-10T06:39:37;25.00;44.40
18712;DHT22;9485;49.386;8.674;2023-06-10T06:44:59;25.20;44.30
18712;DHT22;9485;49.386;8.674;2023-06-10T06:50:19;25.30;44.30
18712;DHT22;9485;49.386;8.674;2023-06-10T06:55:40;25.50;44.30
18712;DHT22;9485;49.386;8.674;2023-06-10T07:01:03;25.70;44.30
18712;DHT22;9485;49.386;8.674;2023-06-10T07:06:23;25.90;44.40
18712;DHT22;9485;49.386;8.674;2023-06-10T07:11:44;26.20;43.80
18712;DHT22;9485;49.386;8.674;2023-06-10T07:17:07;26.50;43.80
18712;DHT22;9485;49.386;8.674;2023-06-10T07:22:27;26.80;43.60
18712;DHT22;9485;49.386;8.674;2023-06-10T07:27:49;27.30;43.80
18712;DHT22;9485;49.386;8.674;2023-06-10T07:33:11;28.10;44.30
18712;DHT22;9485;49.386;8.674;2023-06-10T07:38:32;29.10;44.20
18712;DHT22;9485;49.386;8.674;2023-06-10T07:43:53;30.40;43.60
18712;DHT22;9485;49.386;8.674;2023-06-10T07:49:16;31.70;43.20
18712;DHT22;9485;49.386;8.674;2023-06-10T07:54:37;32.80;41.80
18712;DHT22;9485;49.386;8.674;2023-06-10T07:59:57;33.90;41.10
18712;DHT22;9485;49.386;8.674;2023-06-10T08:05:21;34.90;39.90
18712;DHT22;9485;49.386;8.674;2023-06-10T08:10:42;35.90;38.90
18712;DHT22;9485;49.386;8.674;2023-06-10T08:16:03;36.70;38.30
18712;DHT22;9485;49.386;8.674;2023-06-10T08:21:25;37.30;37.00
18712;DHT22;9485;49.386;8.674;2023-06-10T08:26:47;37.80;36.00
18712;DHT22;9485;49.386;8.674;2023-06-10T08:32:08;38.20;35.60
18712;DHT22;9485;49.386;8.674;2023-06-10T08:37:30;38.60;35.50
18712;DHT22;9485;49.386;8.674;2023-06-10T08:42:57;39.00;34.50
18712;DHT22;9485;49.386;8.674;2023-06-10T08:48:27;39.30;33.40
18712;DHT22;9485;49.386;8.674;2023-06-10T08:53:59;39.50;32.70
18712;DHT22;9485;49.386;8.674;2023-06-10T08:59:22;39.50;31.80
18712;DHT22;9485;49.386;8.674;2023-06-10T09:04:46;39.40;32.40
18712;DHT22;9485;49.386;8.674;2023-06-10T09:10:11;39.30;31.70
18712;DHT22;9485;49.386;8.674;2023-06-10T09:15:32;39.20;31.30
18712;DHT22;9485;49.386;8.674;2023-06-10T09:20:53;39.10;31.40
18712;DHT22;9485;49.386;8.674;2023-06-10T09:26:15;39.00;31.10
18712;DHT22;9485;49.386;8.674;2023-06-10T09:31:38;38.90;30.90
18712;DHT22;9485;49.386;8.674;2023-06-10T09:36:59;38.80;30.80
18712;DHT22;9485;49.386;8.674;2023-06-10T09:42:22;38.80;31.00
18712;DHT22;9485;49.386;8.674;2023-06-10T09:47:42;38.70;31.00
18712;DHT22;9485;49.386;8.674;2023-06-10T09:53:06;38.80;31.10
18712;DHT22;9485;49.386;8.674;2023-06-10T09:58:38;39.00;30.70
18712;DHT22;9485;49.386;8.674;2023-06-10T10:04:03;39.10;29.80
18712;DHT22;9485;49.386;8.674;2023-06-10T10:09:24;39.10;30.10
18712;DHT22;9485;49.386;8.674;2023-06-10T10:14:47;39.20;30.50
18712;DHT22;9485;49.386;8.674;2023-06-10T10:20:12;39.40;29.80
18712;DHT22;9485;49.386;8.674;2023-06-10T10:25:39;39.60;29.30
18712;DHT22;9485;49.386;8.674;2023-06-10T10:31:08;39.60;29.80
18712;DHT22;9485;49.386;8.674;2023-06-10T10:36:31;39.60;28.70
18712;DHT22;9485;49.386;8.674;2023-06-10T10:41:53;39.60;29.10
18712;DHT22;9485;49.386;8.674;2023-06-10T10:47:18;39.50;29.00
18712;DHT22;9485;49.386;8.674;2023-06-10T10:52:53;39.40;28.50
18712;DHT22;9485;49.386;8.674;2023-06-10T10:58:15;39.30;28.50
18712;DHT22;9485;49.386;8.674;2023-06-10T11:03:42;39.30;29.00
18712;DHT22;9485;49.386;8.674;2023-06-10T11:09:27;39.30;28.20
18712;DHT22;9485;49.386;8.674;2023-06-10T11:14:53;39.40;28.40
18712;DHT22;9485;49.386;8.674;2023-06-10T11:26:30;39.70;27.90
18712;DHT22;9485;49.386;8.674;2023-06-10T11:31:54;39.90;28.20
18712;DHT22;9485;49.386;8.674;2023-06-10T11:37:16;40.10;28.10
18712;DHT22;9485;49.386;8.674;2023-06-10T11:42:40;40.10;28.20
18712;DHT22;9485;49.386;8.674;2023-06-10T11:48:00;40.00;27.40
18712;DHT22;9485;49.386;8.674;2023-06-10T11:53:22;39.90;27.70
18712;DHT22;9485;49.386;8.674;2023-06-10T11:58:43;39.80;27.50
18712;DHT22;9485;49.386;8.674;2023-06-10T12:04:07;39.60;27.80
18712;DHT22;9485;49.386;8.674;2023-06-10T12:09:30;39.60;28.40
18712;DHT22;9485;49.386;8.674;2023-06-10T12:14:53;39.60;27.90
18712;DHT22;9485;49.386;8.674;2023-06-10T12:20:25;39.70;27.50
18712;DHT22;9485;49.386;8.674;2023-06-10T12:25:51;39.50;27.20
18712;DHT22;9485;49.386;8.674;2023-06-10T12:31:13;39.20;26.80
18712;DHT22;9485;49.386;8.674;2023-06-10T12:36:34;38.90;27.60
18712;DHT22;9485;49.386;8.674;2023-06-10T12:41:57;38.70;27.90
18712;DHT22;9485;49.386;8.674;2023-06-10T12:47:18;38.80;27.80
18712;DHT22;9485;49.386;8.674;2023-06-10T12:52:38;38.90;28.00
18712;DHT22;9485;49.386;8.674;2023-06-10T12:58:01;39.00;28.00
18712;DHT22;9485;49.386;8.674;2023-06-10T13:03:22;39.10;27.90
18712;DHT22;9485;49.386;8.674;2023-06-10T13:08:42;39.30;27.70
18712;DHT22;9485;49.386;8.674;2023-06-10T13:14:04;39.40;27.50
18712;DHT22;9485;49.386;8.674;2023-06-10T13:19:25;39.70;27.20
18712;DHT22;9485;49.386;8.674;2023-06-10T13:24:46;40.20;27.00
18712;DHT22;9485;49.386;8.674;2023-06-10T13:30:10;40.60;26.90
18712;DHT22;9485;49.386;8.674;2023-06-10T13:35:31;40.90;26.10
18712;DHT22;9485;49.386;8.674;2023-06-10T13:40:52;41.20;26.20
18712;DHT22;9485;49.386;8.674;2023-06-10T13:46:14;41.00;25.70
18712;DHT22;9485;49.386;8.674;2023-06-10T13:51:35;40.60;26.10
18712;DHT22;9485;49.386;8.674;2023-06-10T13:56:56;40.70;26.30
18712;DHT22;9485;49.386;8.674;2023-06-10T14:02:18;40.90;26.30
18712;DHT22;9485;49.386;8.674;2023-06-10T14:07:39;41.10;25.80
18712;DHT22;9485;49.386;8.674;2023-06-10T14:13:00;41.20;25.90
18712;DHT22;9485;49.386;8.674;2023-06-10T14:18:23;41.10;25.90
18712;DHT22;9485;49.386;8.674;2023-06-10T14:23:44;40.80;25.40
18712;DHT22;9485;49.386;8.674;2023-06-10T14:29:05;40.60;26.10
18712;DHT22;9485;49.386;8.674;2023-06-10T14:34:27;40.10;25.70
18712;DHT22;9485;49.386;8.674;2023-06-10T14:39:52;39.60;25.60
18712;DHT22;9485;49.386;8.674;2023-06-10T14:45:13;39.00;25.50
18712;DHT22;9485;49.386;8.674;2023-06-10T14:50:36;38.40;25.90
18712;DHT22;9485;49.386;8.674;2023-06-10T14:55:57;37.90;25.90
18712;DHT22;9485;49.386;8.674;2023-06-10T15:01:47;37.40;26.10
18712;DHT22;9485;49.386;8.674;2023-06-10T15:07:09;36.90;26.50
18712;DHT22;9485;49.386;8.674;2023-06-10T15:12:29;36.50;26.80
18712;DHT22;9485;49.386;8.674;2023-06-10T15:17:50;36.10;26.90
18712;DHT22;9485;49.386;8.674;2023-06-10T15:23:13;35.80;27.20
18712;DHT22;9485;49.386;8.674;2023-06-10T15:28:34;35.50;27.30
18712;DHT22;9485;49.386;8.674;2023-06-10T15:33:55;35.30;27.60
18712;DHT22;9485;49.386;8.674;2023-06-10T15:39:17;35.10;27.80
18712;DHT22;9485;49.386;8.674;2023-06-10T15:44:37;34.90;28.00
18712;DHT22;9485;49.386;8.674;2023-06-10T15:49:58;34.80;27.90
18712;DHT22;9485;49.386;8.674;2023-06-10T15:55:20;34.60;28.10
18712;DHT22;9485;49.386;8.674;2023-06-10T16:00:41;34.50;28.20
18712;DHT22;9485;49.386;8.674;2023-06-10T16:06:01;34.50;28.40
18712;DHT22;9485;49.386;8.674;2023-06-10T16:11:23;34.40;28.30
18712;DHT22;9485;49.386;8.674;2023-06-10T16:16:45;34.30;28.40
18712;DHT22;9485;49.386;8.674;2023-06-10T16:22:05;34.20;28.30
18712;DHT22;9485;49.386;8.674;2023-06-10T16:27:27;34.10;28.40
18712;DHT22;9485;49.386;8.674;2023-06-10T16:32:48;33.90;28.60
18712;DHT22;9485;49.386;8.674;2023-06-10T16:38:09;33.80;28.70
18712;DHT22;9485;49.386;8.674;2023-06-10T16:43:32;33.70;29.20
18712;DHT22;9485;49.386;8.674;2023-06-10T16:48:53;33.60;29.60
18712;DHT22;9485;49.386;8.674;2023-06-10T16:54:14;33.30;29.50
18712;DHT22;9485;49.386;8.674;2023-06-10T16:59:36;33.10;29.70
18712;DHT22;9485;49.386;8.674;2023-06-10T17:04:56;32.90;29.60
18712;DHT22;9485;49.386;8.674;2023-06-10T17:10:17;32.80;29.60
18712;DHT22;9485;49.386;8.674;2023-06-10T17:15:39;32.70;29.90
18712;DHT22;9485;49.386;8.674;2023-06-10T17:21:00;32.60;30.00
18712;DHT22;9485;49.386;8.674;2023-06-10T17:26:21;32.50;30.00
18712;DHT22;9485;49.386;8.674;2023-06-10T17:31:44;32.50;30.00
18712;DHT22;9485;49.386;8.674;2023-06-10T17:37:04;32.50;30.00
18712;DHT22;9485;49.386;8.674;2023-06-10T17:42:25;32.40;30.00
18712;DHT22;9485;49.386;8.674;2023-06-10T17:47:47;32.40;30.10
18712;DHT22;9485;49.386;8.674;2023-06-10T17:53:08;32.30;30.40
18712;DHT22;9485;49.386;8.674;2023-06-10T17:58:29;32.20;30.20
18712;DHT22;9485;49.386;8.674;2023-06-10T18:03:51;32.10;30.30
18712;DHT22;9485;49.386;8.674;2023-06-10T18:09:12;32.00;30.50
18712;DHT22;9485;49.386;8.674;2023-06-10T18:14:33;31.90;30.60
18712;DHT22;9485;49.386;8.674;2023-06-10T18:19:55;31.80;30.80
18712;DHT22;9485;49.386;8.674;2023-06-10T18:25:16;31.80;31.00
18712;DHT22;9485;49.386;8.674;2023-06-10T18:30:37;31.60;30.90
18712;DHT22;9485;49.386;8.674;2023-06-10T18:35:59;31.60;31.10
18712;DHT22;9485;49.386;8.674;2023-06-10T18:41:19;31.50;31.30
18712;DHT22;9485;49.386;8.674;2023-06-10T18:46:40;31.40;31.80
18712;DHT22;9485;49.386;8.674;2023-06-10T18:52:03;31.20;31.70
18712;DHT22;9485;49.386;8.674;2023-06-10T18:57:25;31.10;32.10
18712;DHT22;9485;49.386;8.674;2023-06-10T19:02:45;31.00;32.20
18712;DHT22;9485;49.386;8.674;2023-06-10T19:08:07;30.80;32.40
18712;DHT22;9485;49.386;8.674;2023-06-10T19:13:28;30.70;32.70
18712;DHT22;9485;49.386;8.674;2023-06-10T19:18:49;30.50;32.80
18712;DHT22;9485;49.386;8.674;2023-06-10T19:24:12;30.40;32.90
18712;DHT22;9485;49.386;8.674;2023-06-10T19:29:33;30.30;33.30
18712;DHT22;9485;49.386;8.674;2023-06-10T19:34:53;30.20;33.40
18712;DHT22;9485;49.386;8.674;2023-06-10T19:40:15;30.10;33.60
18712;DHT22;9485;49.386;8.674;2023-06-10T19:45:36;29.90;33.80
18712;DHT22;9485;49.386;8.674;2023-06-10T19:50:57;29.90;34.00
18712;DHT22;9485;49.386;8.674;2023-06-10T19:56:19;29.80;34.20
18712;DHT22;9485;49.386;8.674;2023-06-10T20:01:41;29.70;34.50
18712;DHT22;9485;49.386;8.674;2023-06-10T20:07:06;29.50;34.40
18712;DHT22;9485;49.386;8.674;2023-06-10T20:12:27;29.60;34.60
18712;DHT22;9485;49.386;8.674;2023-06-10T20:17:48;29.50;34.90
18712;DHT22;9485;49.386;8.674;2023-06-10T20:23:10;29.40;35.00
18712;DHT22;9485;49.386;8.674;2023-06-10T20:28:33;29.40;35.10
18712;DHT22;9485;49.386;8.674;2023-06-10T20:33:54;29.40;35.40
18712;DHT22;9485;49.386;8.674;2023-06-10T20:39:15;29.30;35.40
18712;DHT22;9485;49.386;8.674;2023-06-10T20:44:37;29.30;35.50
18712;DHT22;9485;49.386;8.674;2023-06-10T20:49:58;29.20;35.80
18712;DHT22;9485;49.386;8.674;2023-06-10T20:55:18;29.20;35.80
18712;DHT22;9485;49.386;8.674;2023-06-10T21:00:41;29.10;35.90
18712;DHT22;9485;49.386;8.674;2023-06-10T21:06:01;29.10;36.20
18712;DHT22;9485;49.386;8.674;2023-06-10T21:11:22;29.00;36.20
18712;DHT22;9485;49.386;8.674;2023-06-10T21:16:45;29.00;36.30
18712;DHT22;9485;49.386;8.674;2023-06-10T21:22:06;29.00;36.50
18712;DHT22;9485;49.386;8.674;2023-06-10T21:27:26;29.00;36.50
18712;DHT22;9485;49.386;8.674;2023-06-10T21:32:48;28.80;36.50
18712;DHT22;9485;49.386;8.674;2023-06-10T21:38:09;28.80;36.80
18712;DHT22;9485;49.386;8.674;2023-06-10T21:43:30;28.70;36.70
18712;DHT22;9485;49.386;8.674;2023-06-10T21:48:55;28.70;36.90
18712;DHT22;9485;49.386;8.674;2023-06-10T21:54:16;28.60;37.20
18712;DHT22;9485;49.386;8.674;2023-06-10T21:59:37;28.60;37.10
18712;DHT22;9485;49.386;8.674;2023-06-10T22:05:00;28.50;37.20
18712;DHT22;9485;49.386;8.674;2023-06-10T22:10:21;28.50;37.40
18712;DHT22;9485;49.386;8.674;2023-06-10T22:15:42;28.40;37.40
18712;DHT22;9485;49.386;8.674;2023-06-10T22:21:04;28.30;37.30
18712;DHT22;9485;49.386;8.674;2023-06-10T22:26:25;28.30;37.60
18712;DHT22;9485;49.386;8.674;2023-06-10T22:31:46;28.20;37.50
18712;DHT22;9485;49.386;8.674;2023-06-10T22:37:08;28.20;37.60
18712;DHT22;9485;49.386;8.674;2023-06-10T22:42:28;28.10;37.70
18712;DHT22;9485;49.386;8.674;2023-06-10T22:47:49;28.10;37.80
18712;DHT22;9485;49.386;8.674;2023-06-10T22:53:11;28.00;37.90
18712;DHT22;9485;49.386;8.674;2023-06-10T22:58:32;28.00;38.20
18712;DHT22;9485;49.386;8.674;2023-06-10T23:03:53;27.90;38.10
18712;DHT22;9485;49.386;8.674;2023-06-10T23:09:15;27.90;38.10
18712;DHT22;9485;49.386;8.674;2023-06-10T23:14:36;27.80;38.40
18712;DHT22;9485;49.386;8.674;2023-06-10T23:19:57;27.80;38.40
18712;DHT22;9485;49.386;8.674;2023-06-10T23:25:19;27.70;38.50
18712;DHT22;9485;49.386;8.674;2023-06-10T23:30:41;27.70;38.80
18712;DHT22;9485;49.386;8.674;2023-06-10T23:36:02;27.70;38.80
18712;DHT22;9485;49.386;8.674;2023-06-10T23:41:25;27.60;38.90
18712;DHT22;9485;49.386;8.674;2023-06-10T23:46:46;27.50;39.00
18712;DHT22;9485;49.386;8.674;2023-06-10T23:52:07;27.60;39.10
18712;DHT22;9485;49.386;8.674;2023-06-10T23:57:29;27.50;39.20
